sensor_id;sensor_type;location;lat;lon;timestamp;temperature;humidity
19206;DHT22;59358;52.134;5.596;2022-12-29T00:01:33;11.30;99.90
19206;DHT22;59358;52.134;5.596;2022-12-29T00:04:00;11.40;99.90
19206;DHT22;59358;52.134;5.596;2022-12-29T00:06:27;11.40;99.90
19206;DHT22;59358;52.134;5.596;2022-12-29T00:08:55;11.40;99.90
19206;DHT22;59358;52.134;5.596;2022-12-29T00:11:25;11.50;99.90
19206;DHT22;59358;52.134;5.596;2022-12-29T00:13:52;11.50;99.90
19206;DHT22;59358;52.134;5.596;2022-12-29T00:16:38;11.50;99.90
19206;DHT22;59358;52.134;5.596;2022-12-29T00:19:06;11.50;99.90
19206;DHT22;59358;52.134;5.596;2022-12-29T00:21:53;11.50;99.90
19206;DHT22;59358;52.134;5.596;2022-12-29T00:24:38;11.50;99.90
19206;DHT22;59358;52.134;5.596;2022-12-29T00:27:23;11.50;99.90
19206;DHT22;59358;52.134;5.596;2022-12-29T00:30:10;11.50;99.90
19206;DHT22;59358;52.134;5.596;2022-12-29T00:32:55;11.50;99.90
19206;DHT22;59358;52.134;5.596;2022-12-29T00:35:43;11.50;99.90
19206;DHT22;59358;52.134;5.596;2022-12-29T00:38:11;11.50;99.90
19206;DHT22;59358;52.134;5.596;2022-12-29T00:40:59;11.50;99.90
19206;DHT22;59358;52.134;5.596;2022-12-29T00:43:43;11.50;99.90
19206;DHT22;59358;52.134;5.596;2022-12-29T00:46:27;11.50;99.90
19206;DHT22;59358;52.134;5.596;2022-12-29T00:48:54;11.50;99.90
19206;DHT22;59358;52.134;5.596;2022-12-29T00:51:47;11.50;99.90
19206;DHT22;59358;52.134;5.596;2022-12-29T00:54:15;11.50;99.90
19206;DHT22;59358;52.134;5.596;2022-12-29T00:56:45;11.50;99.90
19206;DHT22;59358;52.134;5.596;2022-12-29T00:59:13;11.50;99.90
19206;DHT22;59358;52.134;5.596;2022-12-29T01:01:40;11.50;99.90
19206;DHT22;59358;52.134;5.596;2022-12-29T01:04:08;11.50;99.90
19206;DHT22;59358;52.134;5.596;2022-12-29T01:06:36;11.50;99.90
19206;DHT22;59358;52.134;5.596;2022-12-29T01:09:03;11.50;99.90
19206;DHT22;59358;52.134;5.596;2022-12-29T01:11:49;11.50;99.90
19206;DHT22;59358;52.134;5.596;2022-12-29T01:14:17;11.50;99.90
19206;DHT22;59358;52.134;5.596;2022-12-29T01:16:43;11.60;99.90
19206;DHT22;59358;52.134;5.596;2022-12-29T01:19:11;11.70;99.90
19206;DHT22;59358;52.134;5.596;2022-12-29T01:21:38;11.60;99.90
19206;DHT22;59358;52.134;5.596;2022-12-29T01:24:05;11.50;99.90
19206;DHT22;59358;52.134;5.596;2022-12-29T01:26:32;11.40;99.90
19206;DHT22;59358;52.134;5.596;2022-12-29T01:29:00;11.30;99.90
19206;DHT22;59358;52.134;5.596;2022-12-29T01:31:27;11.20;99.90
19206;DHT22;59358;52.134;5.596;2022-12-29T01:33:54;11.20;99.90
19206;DHT22;59358;52.134;5.596;2022-12-29T01:36:21;11.10;99.90
19206;DHT22;59358;52.134;5.596;2022-12-29T01:38:47;11.10;99.90
19206;DHT22;59358;52.134;5.596;2022-12-29T01:41:15;11.00;99.90
19206;DHT22;59358;52.134;5.596;2022-12-29T01:43:45;11.00;99.90
19206;DHT22;59358;52.134;5.596;2022-12-29T01:46:20;11.00;99.90
19206;DHT22;59358;52.134;5.596;2022-12-29T01:48:54;10.90;99.90
19206;DHT22;59358;52.134;5.596;2022-12-29T01:51:23;11.00;99.90
19206;DHT22;59358;52.134;5.596;2022-12-29T01:53:51;11.10;99.90
19206;DHT22;59358;52.134;5.596;2022-12-29T01:56:20;11.00;99.90
19206;DHT22;59358;52.134;5.596;2022-12-29T01:58:51;11.00;99.90
19206;DHT22;59358;52.134;5.596;2022-12-29T02:01:22;10.90;99.90
19206;DHT22;59358;52.134;5.596;2022-12-29T02:03:50;11.00;99.90
19206;DHT22;59358;52.134;5.596;2022-12-29T02:06:21;11.00;99.90
19206;DHT22;59358;52.134;5.596;2022-12-29T02:08:50;11.10;99.90
19206;DHT22;59358;52.134;5.596;2022-12-29T02:11:19;11.10;99.90
19206;DHT22;59358;52.134;5.596;2022-12-29T02:13:48;11.10;99.90
19206;DHT22;59358;52.134;5.596;2022-12-29T02:16:26;11.00;99.90
19206;DHT22;59358;52.134;5.596;2022-12-29T02:19:25;11.00;99.90
19206;DHT22;59358;52.134;5.596;2022-12-29T02:22:05;11.00;99.90
19206;DHT22;59358;52.134;5.596;2022-12-29T02:25:14;10.90;99.90
19206;DHT22;59358;52.134;5.596;2022-12-29T02:27:52;10.90;99.90
19206;DHT22;59358;52.134;5.596;2022-12-29T02:30:52;10.90;99.90
19206;DHT22;59358;52.134;5.596;2022-12-29T02:33:36;10.90;99.90
19206;DHT22;59358;52.134;5.596;2022-12-29T02:36:09;10.90;99.90
19206;DHT22;59358;52.134;5.596;2022-12-29T02:38:48;10.90;99.90
19206;DHT22;59358;52.134;5.596;2022-12-29T02:41:24;10.90;99.90
19206;DHT22;59358;52.134;5.596;2022-12-29T02:44:01;10.90;99.90
19206;DHT22;59358;52.134;5.596;2022-12-29T02:46:34;10.90;99.90
19206;DHT22;59358;52.134;5.596;2022-12-29T02:49:06;11.00;99.90
19206;DHT22;59358;52.134;5.596;2022-12-29T02:51:40;11.00;99.90
19206;DHT22;59358;52.134;5.596;2022-12-29T02:54:09;11.10;99.90
19206;DHT22;59358;52.134;5.596;2022-12-29T02:56:54;11.10;99.90
19206;DHT22;59358;52.134;5.596;2022-12-29T02:59:21;11.10;99.90
19206;DHT22;59358;52.134;5.596;2022-12-29T03:02:06;11.20;99.90
19206;DHT22;59358;52.134;5.596;2022-12-29T03:07:40;11.10;99.90
19206;DHT22;59358;52.134;5.596;2022-12-29T03:10:17;11.10;99.90
19206;DHT22;59358;52.134;5.596;2022-12-29T03:12:51;11.10;99.90
19206;DHT22;59358;52.134;5.596;2022-12-29T03:15:43;11.10;99.90
19206;DHT22;59358;52.134;5.596;2022-12-29T03:18:39;11.10;99.90
19206;DHT22;59358;52.134;5.596;2022-12-29T03:21:12;11.00;99.90
19206;DHT22;59358;52.134;5.596;2022-12-29T03:23:42;10.90;99.90
19206;DHT22;59358;52.134;5.596;2022-12-29T03:26:15;10.80;99.90
19206;DHT22;59358;52.134;5.596;2022-12-29T03:28:46;10.80;99.90
19206;DHT22;59358;52.134;5.596;2022-12-29T03:31:14;10.80;99.90
19206;DHT22;59358;52.134;5.596;2022-12-29T03:33:45;10.80;99.90
19206;DHT22;59358;52.134;5.596;2022-12-29T03:36:17;10.80;99.90
19206;DHT22;59358;52.134;5.596;2022-12-29T03:38:50;10.70;99.90
19206;DHT22;59358;52.134;5.596;2022-12-29T03:41:21;10.70;99.90
19206;DHT22;59358;52.134;5.596;2022-12-29T03:43:50;10.70;99.90
19206;DHT22;59358;52.134;5.596;2022-12-29T03:46:17;10.60;99.90
19206;DHT22;59358;52.134;5.596;2022-12-29T03:48:45;10.60;99.90
19206;DHT22;59358;52.134;5.596;2022-12-29T03:51:12;10.50;99.90
19206;DHT22;59358;52.134;5.596;2022-12-29T03:53:38;10.50;99.90
19206;DHT22;59358;52.134;5.596;2022-12-29T03:56:05;10.50;99.90
19206;DHT22;59358;52.134;5.596;2022-12-29T03:58:32;10.50;99.90
19206;DHT22;59358;52.134;5.596;2022-12-29T04:00:59;10.60;99.90
19206;DHT22;59358;52.134;5.596;2022-12-29T04:03:26;10.60;99.90
19206;DHT22;59358;52.134;5.596;2022-12-29T04:05:54;10.60;99.90
19206;DHT22;59358;52.134;5.596;2022-12-29T04:08:21;10.60;99.90
19206;DHT22;59358;52.134;5.596;2022-12-29T04:10:48;10.50;99.90
19206;DHT22;59358;52.134;5.596;2022-12-29T04:13:15;10.50;99.90
19206;DHT22;59358;52.134;5.596;2022-12-29T04:15:42;10.50;99.90
19206;DHT22;59358;52.134;5.596;2022-12-29T04:18:10;10.50;99.90
19206;DHT22;59358;52.134;5.596;2022-12-29T04:20:37;10.50;99.90
19206;DHT22;59358;52.134;5.596;2022-12-29T04:23:24;10.50;99.90
19206;DHT22;59358;52.134;5.596;2022-12-29T04:25:50;10.50;99.90
19206;DHT22;59358;52.134;5.596;2022-12-29T04:28:18;10.50;99.90
19206;DHT22;59358;52.134;5.596;2022-12-29T04:30:45;10.50;99.90
19206;DHT22;59358;52.134;5.596;2022-12-29T04:33:12;10.50;99.90
19206;DHT22;59358;52.134;5.596;2022-12-29T04:35:39;10.60;99.90
19206;DHT22;59358;52.134;5.596;2022-12-29T04:38:06;10.60;99.90
19206;DHT22;59358;52.134;5.596;2022-12-29T04:40:35;10.70;99.90
19206;DHT22;59358;52.134;5.596;2022-12-29T04:43:01;10.70;99.90
19206;DHT22;59358;52.134;5.596;2022-12-29T04:45:28;10.80;99.90
19206;DHT22;59358;52.134;5.596;2022-12-29T04:47:55;10.70;99.90
19206;DHT22;59358;52.134;5.596;2022-12-29T04:50:22;10.80;99.90
19206;DHT22;59358;52.134;5.596;2022-12-29T04:52:49;10.80;99.90
19206;DHT22;59358;52.134;5.596;2022-12-29T04:55:16;10.70;99.90
19206;DHT22;59358;52.134;5.596;2022-12-29T04:57:44;10.70;99.90
19206;DHT22;59358;52.134;5.596;2022-12-29T05:00:12;10.70;99.90
19206;DHT22;59358;52.134;5.596;2022-12-29T05:02:39;10.70;99.90
19206;DHT22;59358;52.134;5.596;2022-12-29T05:05:06;10.70;99.90
19206;DHT22;59358;52.134;5.596;2022-12-29T05:07:34;10.60;99.90
19206;DHT22;59358;52.134;5.596;2022-12-29T05:10:01;10.70;99.90
19206;DHT22;59358;52.134;5.596;2022-12-29T05:12:30;10.70;99.90
19206;DHT22;59358;52.134;5.596;2022-12-29T05:14:58;10.70;99.90
19206;DHT22;59358;52.134;5.596;2022-12-29T05:17:25;10.60;99.90
19206;DHT22;59358;52.134;5.596;2022-12-29T05:19:52;10.60;99.90
19206;DHT22;59358;52.134;5.596;2022-12-29T05:22:19;10.60;99.90
19206;DHT22;59358;52.134;5.596;2022-12-29T05:24:46;10.60;99.90
19206;DHT22;59358;52.134;5.596;2022-12-29T05:27:13;10.60;99.90
19206;DHT22;59358;52.134;5.596;2022-12-29T05:29:40;10.60;99.90
19206;DHT22;59358;52.134;5.596;2022-12-29T05:32:08;10.60;99.90
19206;DHT22;59358;52.134;5.596;2022-12-29T05:34:35;10.50;99.90
19206;DHT22;59358;52.134;5.596;2022-12-29T05:37:02;10.50;99.90
19206;DHT22;59358;52.134;5.596;2022-12-29T05:39:29;10.50;99.90
19206;DHT22;59358;52.134;5.596;2022-12-29T05:41:56;10.40;99.90
19206;DHT22;59358;52.134;5.596;2022-12-29T05:44:22;10.40;99.90
19206;DHT22;59358;52.134;5.596;2022-12-29T05:46:49;10.40;99.90
19206;DHT22;59358;52.134;5.596;2022-12-29T05:49:18;10.40;99.90
19206;DHT22;59358;52.134;5.596;2022-12-29T05:51:45;10.40;99.90
19206;DHT22;59358;52.134;5.596;2022-12-29T05:54:12;10.40;99.90
19206;DHT22;59358;52.134;5.596;2022-12-29T05:56:39;10.40;99.90
19206;DHT22;59358;52.134;5.596;2022-12-29T05:59:06;10.40;99.90
19206;DHT22;59358;52.134;5.596;2022-12-29T06:01:33;10.40;99.90
19206;DHT22;59358;52.134;5.596;2022-12-29T06:04:00;10.50;99.90
19206;DHT22;59358;52.134;5.596;2022-12-29T06:06:30;10.40;99.90
19206;DHT22;59358;52.134;5.596;2022-12-29T06:08:57;10.40;99.90
19206;DHT22;59358;52.134;5.596;2022-12-29T06:11:24;10.40;99.90
19206;DHT22;59358;52.134;5.596;2022-12-29T06:13:51;10.40;99.90
19206;DHT22;59358;52.134;5.596;2022-12-29T06:16:18;10.40;99.90
19206;DHT22;59358;52.134;5.596;2022-12-29T06:18:45;10.40;99.90
19206;DHT22;59358;52.134;5.596;2022-12-29T06:21:12;10.40;99.90
19206;DHT22;59358;52.134;5.596;2022-12-29T06:23:40;10.50;99.90
19206;DHT22;59358;52.134;5.596;2022-12-29T06:26:07;10.40;99.90
19206;DHT22;59358;52.134;5.596;2022-12-29T06:28:34;10.40;99.90
19206;DHT22;59358;52.134;5.596;2022-12-29T06:31:01;10.40;99.90
19206;DHT22;59358;52.134;5.596;2022-12-29T06:33:28;10.30;99.90
19206;DHT22;59358;52.134;5.596;2022-12-29T06:35:55;10.30;99.90
19206;DHT22;59358;52.134;5.596;2022-12-29T06:38:22;10.30;99.90
19206;DHT22;59358;52.134;5.596;2022-12-29T06:40:50;10.20;99.90
19206;DHT22;59358;52.134;5.596;2022-12-29T06:43:17;10.20;99.90
19206;DHT22;59358;52.134;5.596;2022-12-29T06:45:44;10.00;99.90
19206;DHT22;59358;52.134;5.596;2022-12-29T06:48:11;10.00;99.90
19206;DHT22;59358;52.134;5.596;2022-12-29T06:50:38;9.90;99.90
19206;DHT22;59358;52.134;5.596;2022-12-29T06:53:05;9.90;99.90
19206;DHT22;59358;52.134;5.596;2022-12-29T06:55:32;9.80;99.90
19206;DHT22;59358;52.134;5.596;2022-12-29T06:58:00;10.00;99.90
19206;DHT22;59358;52.134;5.596;2022-12-29T07:00:27;10.00;99.90
19206;DHT22;59358;52.134;5.596;2022-12-29T07:02:54;10.00;99.90
19206;DHT22;59358;52.134;5.596;2022-12-29T07:05:21;10.00;99.90
19206;DHT22;59358;52.134;5.596;2022-12-29T07:07:48;10.00;99.90
19206;DHT22;59358;52.134;5.596;2022-12-29T07:10:15;10.00;99.90
19206;DHT22;59358;52.134;5.596;2022-12-29T07:12:42;10.10;99.90
19206;DHT22;59358;52.134;5.596;2022-12-29T07:15:10;9.90;99.90
19206;DHT22;59358;52.134;5.596;2022-12-29T07:17:37;9.90;99.90
19206;DHT22;59358;52.134;5.596;2022-12-29T07:20:05;9.80;99.90
19206;DHT22;59358;52.134;5.596;2022-12-29T07:22:32;9.60;99.90
19206;DHT22;59358;52.134;5.596;2022-12-29T07:24:59;9.40;99.90
19206;DHT22;59358;52.134;5.596;2022-12-29T07:27:26;9.20;99.90
19206;DHT22;59358;52.134;5.596;2022-12-29T07:29:53;9.10;99.90
19206;DHT22;59358;52.134;5.596;2022-12-29T07:32:21;9.00;99.90
19206;DHT22;59358;52.134;5.596;2022-12-29T07:34:50;9.00;99.90
19206;DHT22;59358;52.134;5.596;2022-12-29T07:37:17;8.90;99.90
19206;DHT22;59358;52.134;5.596;2022-12-29T07:39:45;8.90;99.90
19206;DHT22;59358;52.134;5.596;2022-12-29T07:42:12;8.80;99.90
19206;DHT22;59358;52.134;5.596;2022-12-29T07:44:39;8.70;99.90
19206;DHT22;59358;52.134;5.596;2022-12-29T07:47:06;8.70;99.90
19206;DHT22;59358;52.134;5.596;2022-12-29T07:49:34;8.70;99.90
19206;DHT22;59358;52.134;5.596;2022-12-29T07:52:01;8.70;99.90
19206;DHT22;59358;52.134;5.596;2022-12-29T07:54:27;8.70;99.90
19206;DHT22;59358;52.134;5.596;2022-12-29T07:56:54;8.70;99.90
19206;DHT22;59358;52.134;5.596;2022-12-29T07:59:23;8.80;99.90
19206;DHT22;59358;52.134;5.596;2022-12-29T08:01:49;8.80;99.90
19206;DHT22;59358;52.134;5.596;2022-12-29T08:04:16;9.00;99.90
19206;DHT22;59358;52.134;5.596;2022-12-29T08:06:44;9.10;99.90
19206;DHT22;59358;52.134;5.596;2022-12-29T08:09:12;9.20;99.90
19206;DHT22;59358;52.134;5.596;2022-12-29T08:11:39;9.20;99.90
19206;DHT22;59358;52.134;5.596;2022-12-29T08:14:06;9.30;99.90
19206;DHT22;59358;52.134;5.596;2022-12-29T08:16:33;9.30;99.90
19206;DHT22;59358;52.134;5.596;2022-12-29T08:19:00;9.30;99.90
19206;DHT22;59358;52.134;5.596;2022-12-29T08:21:28;9.40;99.90
19206;DHT22;59358;52.134;5.596;2022-12-29T08:23:57;9.40;99.90
19206;DHT22;59358;52.134;5.596;2022-12-29T08:26:24;9.40;99.90
19206;DHT22;59358;52.134;5.596;2022-12-29T08:28:52;9.50;99.90
19206;DHT22;59358;52.134;5.596;2022-12-29T08:31:19;9.60;99.90
19206;DHT22;59358;52.134;5.596;2022-12-29T08:33:46;9.70;99.90
19206;DHT22;59358;52.134;5.596;2022-12-29T08:36:13;9.70;99.90
19206;DHT22;59358;52.134;5.596;2022-12-29T08:38:40;9.80;99.90
19206;DHT22;59358;52.134;5.596;2022-12-29T08:41:09;9.90;99.90
19206;DHT22;59358;52.134;5.596;2022-12-29T08:43:36;9.90;99.90
19206;DHT22;59358;52.134;5.596;2022-12-29T08:46:03;10.00;99.90
19206;DHT22;59358;52.134;5.596;2022-12-29T08:48:30;9.90;99.90
19206;DHT22;59358;52.134;5.596;2022-12-29T08:50:57;10.00;99.90
19206;DHT22;59358;52.134;5.596;2022-12-29T08:53:24;10.00;99.90
19206;DHT22;59358;52.134;5.596;2022-12-29T08:55:56;10.20;99.90
19206;DHT22;59358;52.134;5.596;2022-12-29T08:58:25;10.00;99.90
19206;DHT22;59358;52.134;5.596;2022-12-29T09:00:53;10.10;99.90
19206;DHT22;59358;52.134;5.596;2022-12-29T09:03:20;10.00;99.90
19206;DHT22;59358;52.134;5.596;2022-12-29T09:05:48;9.90;99.90
19206;DHT22;59358;52.134;5.596;2022-12-29T09:08:15;9.80;99.90
19206;DHT22;59358;52.134;5.596;2022-12-29T09:10:41;9.80;99.90
19206;DHT22;59358;52.134;5.596;2022-12-29T09:13:09;9.80;99.90
19206;DHT22;59358;52.134;5.596;2022-12-29T09:15:37;9.80;99.90
19206;DHT22;59358;52.134;5.596;2022-12-29T09:18:04;9.90;99.90
19206;DHT22;59358;52.134;5.596;2022-12-29T09:20:31;9.90;99.90
19206;DHT22;59358;52.134;5.596;2022-12-29T09:22:58;9.90;99.90
19206;DHT22;59358;52.134;5.596;2022-12-29T09:25:25;9.90;99.90
19206;DHT22;59358;52.134;5.596;2022-12-29T09:27:53;9.90;99.90
19206;DHT22;59358;52.134;5.596;2022-12-29T09:30:22;9.80;99.90
19206;DHT22;59358;52.134;5.596;2022-12-29T09:32:50;9.90;99.90
19206;DHT22;59358;52.134;5.596;2022-12-29T09:35:17;9.90;99.90
19206;DHT22;59358;52.134;5.596;2022-12-29T09:37:45;10.00;99.90
19206;DHT22;59358;52.134;5.596;2022-12-29T09:40:24;10.00;99.90
19206;DHT22;59358;52.134;5.596;2022-12-29T09:43:03;10.00;99.90
19206;DHT22;59358;52.134;5.596;2022-12-29T09:45:36;9.90;99.90
19206;DHT22;59358;52.134;5.596;2022-12-29T09:48:11;9.90;99.90
19206;DHT22;59358;52.134;5.596;2022-12-29T09:50:45;9.90;99.90
19206;DHT22;59358;52.134;5.596;2022-12-29T09:53:17;9.80;99.90
19206;DHT22;59358;52.134;5.596;2022-12-29T09:55:50;9.70;99.90
19206;DHT22;59358;52.134;5.596;2022-12-29T09:58:22;9.60;99.90
19206;DHT22;59358;52.134;5.596;2022-12-29T10:00:56;9.50;99.90
19206;DHT22;59358;52.134;5.596;2022-12-29T10:03:32;9.40;99.90
19206;DHT22;59358;52.134;5.596;2022-12-29T10:06:07;9.30;99.90
19206;DHT22;59358;52.134;5.596;2022-12-29T10:08:40;9.40;99.90
19206;DHT22;59358;52.134;5.596;2022-12-29T10:11:17;9.40;99.90
19206;DHT22;59358;52.134;5.596;2022-12-29T10:14:05;9.40;99.90
19206;DHT22;59358;52.134;5.596;2022-12-29T10:16:43;9.50;99.90
19206;DHT22;59358;52.134;5.596;2022-12-29T10:19:39;9.50;99.90
19206;DHT22;59358;52.134;5.596;2022-12-29T10:22:18;9.50;99.90
19206;DHT22;59358;52.134;5.596;2022-12-29T10:24:51;9.60;99.90
19206;DHT22;59358;52.134;5.596;2022-12-29T10:27:21;9.60;99.90
19206;DHT22;59358;52.134;5.596;2022-12-29T10:29:50;9.60;99.90
19206;DHT22;59358;52.134;5.596;2022-12-29T10:32:26;9.60;99.90
19206;DHT22;59358;52.134;5.596;2022-12-29T10:35:00;9.50;99.90
19206;DHT22;59358;52.134;5.596;2022-12-29T10:37:34;9.50;99.90
19206;DHT22;59358;52.134;5.596;2022-12-29T10:40:11;9.40;99.90
19206;DHT22;59358;52.134;5.596;2022-12-29T10:42:44;9.40;99.90
19206;DHT22;59358;52.134;5.596;2022-12-29T10:45:14;9.40;99.90
19206;DHT22;59358;52.134;5.596;2022-12-29T10:47:50;9.30;99.90
19206;DHT22;59358;52.134;5.596;2022-12-29T10:50:19;9.30;99.90
19206;DHT22;59358;52.134;5.596;2022-12-29T10:52:46;9.20;99.90
19206;DHT22;59358;52.134;5.596;2022-12-29T10:55:18;9.30;99.90
19206;DHT22;59358;52.134;5.596;2022-12-29T10:57:47;9.30;99.90
19206;DHT22;59358;52.134;5.596;2022-12-29T11:00:17;9.30;99.90
19206;DHT22;59358;52.134;5.596;2022-12-29T11:03:09;9.40;99.90
19206;DHT22;59358;52.134;5.596;2022-12-29T11:05:43;9.40;99.90
19206;DHT22;59358;52.134;5.596;2022-12-29T11:08:14;9.50;99.90
19206;DHT22;59358;52.134;5.596;2022-12-29T11:10:44;9.50;99.90
19206;DHT22;59358;52.134;5.596;2022-12-29T11:13:14;9.50;99.90
19206;DHT22;59358;52.134;5.596;2022-12-29T11:15:43;9.50;99.90
19206;DHT22;59358;52.134;5.596;2022-12-29T11:18:19;9.50;99.90
19206;DHT22;59358;52.134;5.596;2022-12-29T11:20:49;9.50;99.90
19206;DHT22;59358;52.134;5.596;2022-12-29T11:23:31;9.60;99.90
19206;DHT22;59358;52.134;5.596;2022-12-29T11:26:15;9.60;99.90
19206;DHT22;59358;52.134;5.596;2022-12-29T11:28:44;9.60;99.90
19206;DHT22;59358;52.134;5.596;2022-12-29T11:31:16;9.70;99.90
19206;DHT22;59358;52.134;5.596;2022-12-29T11:33:43;9.70;99.90
19206;DHT22;59358;52.134;5.596;2022-12-29T11:36:14;9.80;99.90
19206;DHT22;59358;52.134;5.596;2022-12-29T11:38:46;9.90;99.90
19206;DHT22;59358;52.134;5.596;2022-12-29T11:41:23;9.90;99.90
19206;DHT22;59358;52.134;5.596;2022-12-29T11:43:51;9.90;99.90
19206;DHT22;59358;52.134;5.596;2022-12-29T11:46:20;9.90;99.90
19206;DHT22;59358;52.134;5.596;2022-12-29T11:48:50;9.80;99.90
19206;DHT22;59358;52.134;5.596;2022-12-29T11:51:26;9.70;99.90
19206;DHT22;59358;52.134;5.596;2022-12-29T11:53:56;9.60;99.90
19206;DHT22;59358;52.134;5.596;2022-12-29T11:56:33;9.60;99.90
19206;DHT22;59358;52.134;5.596;2022-12-29T12:05:06;9.50;99.90
19206;DHT22;59358;52.134;5.596;2022-12-29T12:07:44;9.50;99.90
19206;DHT22;59358;52.134;5.596;2022-12-29T12:10:20;9.60;99.90
19206;DHT22;59358;52.134;5.596;2022-12-29T12:12:53;9.60;99.90
19206;DHT22;59358;52.134;5.596;2022-12-29T12:15:25;9.50;99.90
19206;DHT22;59358;52.134;5.596;2022-12-29T12:17:59;9.50;99.90
19206;DHT22;59358;52.134;5.596;2022-12-29T12:20:41;9.60;99.90
19206;DHT22;59358;52.134;5.596;2022-12-29T12:23:20;9.70;99.90
19206;DHT22;59358;52.134;5.596;2022-12-29T12:25:56;9.80;99.90
19206;DHT22;59358;52.134;5.596;2022-12-29T12:28:30;9.90;99.90
19206;DHT22;59358;52.134;5.596;2022-12-29T12:31:01;10.00;99.90
19206;DHT22;59358;52.134;5.596;2022-12-29T12:33:33;10.20;99.90
19206;DHT22;59358;52.134;5.596;2022-12-29T12:36:27;10.30;99.90
19206;DHT22;59358;52.134;5.596;2022-12-29T12:39:02;10.40;99.90
19206;DHT22;59358;52.134;5.596;2022-12-29T12:41:43;10.40;99.90
19206;DHT22;59358;52.134;5.596;2022-12-29T12:44:18;10.40;99.90
19206;DHT22;59358;52.134;5.596;2022-12-29T12:47:15;10.40;99.90
19206;DHT22;59358;52.134;5.596;2022-12-29T12:50:10;10.40;99.90
19206;DHT22;59358;52.134;5.596;2022-12-29T12:52:56;10.50;99.90
19206;DHT22;59358;52.134;5.596;2022-12-29T12:55:39;10.50;99.90
19206;DHT22;59358;52.134;5.596;2022-12-29T12:58:19;10.50;99.90
19206;DHT22;59358;52.134;5.596;2022-12-29T13:00:56;10.40;99.90
19206;DHT22;59358;52.134;5.596;2022-12-29T13:03:38;10.30;99.90
19206;DHT22;59358;52.134;5.596;2022-12-29T13:06:16;10.40;99.90
19206;DHT22;59358;52.134;5.596;2022-12-29T13:09:10;10.40;99.90
19206;DHT22;59358;52.134;5.596;2022-12-29T13:11:50;10.40;99.90
19206;DHT22;59358;52.134;5.596;2022-12-29T13:14:32;10.40;99.90
19206;DHT22;59358;52.134;5.596;2022-12-29T13:17:09;10.30;99.90
19206;DHT22;59358;52.134;5.596;2022-12-29T13:19:41;10.30;99.90
19206;DHT22;59358;52.134;5.596;2022-12-29T13:22:15;10.40;99.90
19206;DHT22;59358;52.134;5.596;2022-12-29T13:24:54;10.40;99.90
19206;DHT22;59358;52.134;5.596;2022-12-29T13:27:31;10.30;99.90
19206;DHT22;59358;52.134;5.596;2022-12-29T13:30:02;10.40;99.90
19206;DHT22;59358;52.134;5.596;2022-12-29T13:32:41;10.40;99.90
19206;DHT22;59358;52.134;5.596;2022-12-29T13:35:25;10.40;99.90
19206;DHT22;59358;52.134;5.596;2022-12-29T13:38:00;10.30;99.90
19206;DHT22;59358;52.134;5.596;2022-12-29T13:40:32;10.30;99.90
19206;DHT22;59358;52.134;5.596;2022-12-29T13:43:02;10.20;99.90
19206;DHT22;59358;52.134;5.596;2022-12-29T13:45:31;10.20;99.90
19206;DHT22;59358;52.134;5.596;2022-12-29T13:48:02;10.10;99.90
19206;DHT22;59358;52.134;5.596;2022-12-29T13:50:35;10.00;99.90
19206;DHT22;59358;52.134;5.596;2022-12-29T13:53:10;10.00;99.90
19206;DHT22;59358;52.134;5.596;2022-12-29T13:55:45;9.90;99.90
19206;DHT22;59358;52.134;5.596;2022-12-29T13:58:24;10.00;99.90
19206;DHT22;59358;52.134;5.596;2022-12-29T14:00:57;10.00;99.90
19206;DHT22;59358;52.134;5.596;2022-12-29T14:03:43;9.90;99.90
19206;DHT22;59358;52.134;5.596;2022-12-29T14:06:16;10.00;99.90
19206;DHT22;59358;52.134;5.596;2022-12-29T14:08:46;10.00;99.90
19206;DHT22;59358;52.134;5.596;2022-12-29T14:11:15;9.90;99.90
19206;DHT22;59358;52.134;5.596;2022-12-29T14:13:46;9.90;99.90
19206;DHT22;59358;52.134;5.596;2022-12-29T14:16:29;9.90;99.90
19206;DHT22;59358;52.134;5.596;2022-12-29T14:19:04;10.00;99.90
19206;DHT22;59358;52.134;5.596;2022-12-29T14:21:32;9.90;99.90
19206;DHT22;59358;52.134;5.596;2022-12-29T14:24:38;9.90;99.90
19206;DHT22;59358;52.134;5.596;2022-12-29T14:27:43;9.90;99.90
19206;DHT22;59358;52.134;5.596;2022-12-29T14:33:17;9.80;99.90
19206;DHT22;59358;52.134;5.596;2022-12-29T14:35:45;9.70;99.90
19206;DHT22;59358;52.134;5.596;2022-12-29T14:38:30;9.70;99.90
19206;DHT22;59358;52.134;5.596;2022-12-29T14:41:17;9.60;99.90
19206;DHT22;59358;52.134;5.596;2022-12-29T14:43:54;9.50;99.90
19206;DHT22;59358;52.134;5.596;2022-12-29T14:46:23;9.30;99.90
19206;DHT22;59358;52.134;5.596;2022-12-29T14:48:55;9.10;99.90
19206;DHT22;59358;52.134;5.596;2022-12-29T14:51:30;9.00;99.90
19206;DHT22;59358;52.134;5.596;2022-12-29T14:53:58;8.90;99.90
19206;DHT22;59358;52.134;5.596;2022-12-29T14:56:27;8.90;99.90
19206;DHT22;59358;52.134;5.596;2022-12-29T14:58:58;8.90;99.90
19206;DHT22;59358;52.134;5.596;2022-12-29T15:01:39;8.80;99.90
19206;DHT22;59358;52.134;5.596;2022-12-29T15:04:15;8.80;99.90
19206;DHT22;59358;52.134;5.596;2022-12-29T15:06:43;8.90;99.90
19206;DHT22;59358;52.134;5.596;2022-12-29T15:09:23;8.80;99.90
19206;DHT22;59358;52.134;5.596;2022-12-29T15:11:53;8.90;99.90
19206;DHT22;59358;52.134;5.596;2022-12-29T15:14:32;8.80;99.90
19206;DHT22;59358;52.134;5.596;2022-12-29T15:17:00;8.80;99.90
19206;DHT22;59358;52.134;5.596;2022-12-29T15:19:29;8.80;99.90
19206;DHT22;59358;52.134;5.596;2022-12-29T15:21:57;8.90;99.90
19206;DHT22;59358;52.134;5.596;2022-12-29T15:24:24;8.90;99.90
19206;DHT22;59358;52.134;5.596;2022-12-29T15:26:52;9.00;99.90
19206;DHT22;59358;52.134;5.596;2022-12-29T15:29:31;9.00;99.90
19206;DHT22;59358;52.134;5.596;2022-12-29T15:32:00;9.10;99.90
19206;DHT22;59358;52.134;5.596;2022-12-29T15:34:31;9.10;99.90
19206;DHT22;59358;52.134;5.596;2022-12-29T15:36:57;9.10;99.90
19206;DHT22;59358;52.134;5.596;2022-12-29T15:39:28;9.10;99.90
19206;DHT22;59358;52.134;5.596;2022-12-29T15:41:56;9.20;99.90
19206;DHT22;59358;52.134;5.596;2022-12-29T15:44:29;9.10;99.90
19206;DHT22;59358;52.134;5.596;2022-12-29T15:46:56;9.10;99.90
19206;DHT22;59358;52.134;5.596;2022-12-29T15:49:23;9.20;99.90
19206;DHT22;59358;52.134;5.596;2022-12-29T15:51:52;9.10;99.90
19206;DHT22;59358;52.134;5.596;2022-12-29T15:54:21;9.20;99.90
19206;DHT22;59358;52.134;5.596;2022-12-29T15:56:49;9.20;99.90
19206;DHT22;59358;52.134;5.596;2022-12-29T15:59:24;9.20;99.90
19206;DHT22;59358;52.134;5.596;2022-12-29T16:01:52;9.20;99.90
19206;DHT22;59358;52.134;5.596;2022-12-29T16:04:20;9.30;99.90
19206;DHT22;59358;52.134;5.596;2022-12-29T16:06:56;9.30;99.90
19206;DHT22;59358;52.134;5.596;2022-12-29T16:09:30;9.30;99.90
19206;DHT22;59358;52.134;5.596;2022-12-29T16:12:00;9.30;99.90
19206;DHT22;59358;52.134;5.596;2022-12-29T16:14:32;9.30;99.90
19206;DHT22;59358;52.134;5.596;2022-12-29T16:17:02;9.30;99.90
19206;DHT22;59358;52.134;5.596;2022-12-29T16:19:34;9.30;99.90